Time;durP1;ratioP1;P1;durP2;ratioP2;P2;SDS_P1;SDS_P2;PMS_P1;PMS_P2;Temp;Humidity;BMP_temperature;BMP_pressure;BME280_temperature;BME280_humidity;BME280_pressure;Samples;Min_cycle;Max_cycle;Signal;HPM_P1;HPM_P2
2023/06/21 00:02:58;;;;;;;;;;;;;;;20.13;100.00;101126.75;12865875;23;19983;-67
2023/06/21 00:08:01;;;;;;;;;;;;;;;20.42;100.00;101114.25;12838226;23;19934;-67
2023/06/21 00:13:03;;;;;;;;;;;;;;;19.89;100.00;101129.84;12864453;23;20393;-67
2023/06/21 00:18:05;;;;;;;;;;;;;;;19.75;100.00;101131.94;12864726;23;19924;-67
2023/06/21 00:23:08;;;;;;;;;;;;;;;19.98;100.00;101126.38;12864730;23;20301;-67
2023/06/21 00:28:10;;;;;;;;;;;;;;;20.17;100.00;101126.34;12865011;23;19920;-67
2023/06/21 00:33:12;;;;;;;;;;;;;;;20.20;100.00;101135.84;12864102;23;19955;-67
2023/06/21 00:38:15;;;;;;;;;;;;;;;20.03;100.00;101148.88;12864401;23;19930;-67
2023/06/21 00:43:17;;;;;;;;;;;;;;;20.04;100.00;101153.22;12864811;23;19990;-67
2023/06/21 00:48:19;;;;;;;;;;;;;;;20.17;100.00;101152.06;12864279;23;20404;-68
2023/06/21 00:53:22;;;;;;;;;;;;;;;19.94;100.00;101143.53;12863421;23;20388;-67
2023/06/21 00:58:24;;;;;;;;;;;;;;;19.89;100.00;101151.09;12850006;23;19995;-67
2023/06/21 01:03:26;;;;;;;;;;;;;;;20.30;100.00;101159.75;12863978;23;19920;-67
2023/06/21 01:08:35;;;;;;;;;;;;;;;19.97;100.00;101165.41;12862075;23;20396;-67
2023/06/21 01:13:40;;;;;;;;;;;;;;;19.67;100.00;101172.47;12862882;23;20226;-67
2023/06/21 01:18:45;;;;;;;;;;;;;;;19.73;100.00;101179.03;12864350;23;19934;-68
2023/06/21 01:23:51;;;;;;;;;;;;;;;19.94;100.00;101165.66;12863565;23;20356;-67
2023/06/21 01:29:12;;;;;;;;;;;;;;;20.08;100.00;101180.34;12863043;23;19943;-67
2023/06/21 01:34:14;;;;;;;;;;;;;;;19.79;100.00;101198.94;12861402;23;19919;-67
2023/06/21 01:39:16;;;;;;;;;;;;;;;19.65;100.00;101189.50;12836443;23;19920;-67
2023/06/21 01:44:18;;;;;;;;;;;;;;;19.43;100.00;101195.91;12863533;23;19927;-67
2023/06/21 01:49:20;;;;;;;;;;;;;;;19.73;100.00;101180.88;12863864;23;20000;-67
2023/06/21 01:54:25;;;;;;;;;;;;;;;19.67;100.00;101193.72;12862370;23;20317;-67
2023/06/21 01:59:28;;;;;;;;;;;;;;;19.55;100.00;101188.66;12861325;23;19926;-68
2023/06/21 02:04:31;;;;;;;;;;;;;;;19.53;100.00;101186.13;12863574;23;19934;-67
2023/06/21 02:09:33;;;;;;;;;;;;;;;19.66;100.00;101193.84;12860647;23;20019;-67
2023/06/21 02:14:37;;;;;;;;;;;;;;;19.71;100.00;101191.63;12860163;23;19923;-67
2023/06/21 02:19:39;;;;;;;;;;;;;;;19.66;100.00;101189.38;12863391;23;19920;-67
2023/06/21 02:24:42;;;;;;;;;;;;;;;19.68;100.00;101191.91;12863253;23;19948;-67
2023/06/21 02:29:44;;;;;;;;;;;;;;;19.41;100.00;101208.47;12862152;23;19920;-67
2023/06/21 02:34:46;;;;;;;;;;;;;;;19.44;100.00;101224.16;12862248;23;19959;-67
2023/06/21 02:39:48;;;;;;;;;;;;;;;19.59;100.00;101220.13;12862001;23;20319;-67
2023/06/21 02:44:51;;;;;;;;;;;;;;;19.62;100.00;101238.44;12861960;23;19958;-67
2023/06/21 02:49:53;;;;;;;;;;;;;;;19.33;100.00;101256.09;12886743;23;19926;-67
2023/06/21 02:54:55;;;;;;;;;;;;;;;19.21;100.00;101256.19;12884737;23;20364;-67
2023/06/21 02:59:59;;;;;;;;;;;;;;;19.55;100.00;101247.94;12862330;23;20003;-67
2023/06/21 03:05:01;;;;;;;;;;;;;;;19.23;100.00;101256.06;12862381;23;19939;-67
2023/06/21 03:10:04;;;;;;;;;;;;;;;19.50;100.00;101247.47;12862518;23;19939;-67
2023/06/21 03:15:07;;;;;;;;;;;;;;;19.51;100.00;101259.78;12861595;23;20317;-67
2023/06/21 03:20:12;;;;;;;;;;;;;;;19.56;100.00;101270.03;12861528;23;20249;-67
2023/06/21 03:25:15;;;;;;;;;;;;;;;19.44;100.00;101278.09;12864925;23;20338;-67
2023/06/21 03:30:17;;;;;;;;;;;;;;;19.72;100.00;101285.44;12865811;23;20396;-67
2023/06/21 03:35:19;;;;;;;;;;;;;;;19.58;100.00;101302.59;12865942;23;19924;-67
2023/06/21 03:40:22;;;;;;;;;;;;;;;19.43;100.00;101308.28;12866096;23;19947;-67
2023/06/21 03:45:24;;;;;;;;;;;;;;;19.44;100.00;101317.09;12866301;23;19990;-67
2023/06/21 03:50:26;;;;;;;;;;;;;;;19.37;100.00;101315.94;12865294;23;19990;-67
2023/06/21 03:55:29;;;;;;;;;;;;;;;19.33;100.00;101317.16;12864871;23;19919;-67
2023/06/21 04:00:31;;;;;;;;;;;;;;;19.35;100.00;101305.44;12865894;23;19958;-67
2023/06/21 04:05:33;;;;;;;;;;;;;;;19.26;100.00;101319.50;12865449;23;19920;-67
2023/06/21 04:10:35;;;;;;;;;;;;;;;19.21;100.00;101306.63;12864476;23;19924;-67
2023/06/21 04:15:37;;;;;;;;;;;;;;;19.53;100.00;101316.25;12864872;23;19920;-67
2023/06/21 04:20:40;;;;;;;;;;;;;;;19.34;100.00;101319.69;12865155;23;19947;-67
2023/06/21 04:25:42;;;;;;;;;;;;;;;19.73;100.00;101311.84;12865527;23;19920;-67
2023/06/21 04:30:44;;;;;;;;;;;;;;;19.33;100.00;101322.47;12864572;23;19924;-66
2023/06/21 04:35:46;;;;;;;;;;;;;;;19.49;100.00;101323.66;12864291;23;20337;-67
2023/06/21 04:40:51;;;;;;;;;;;;;;;19.72;100.00;101336.75;12864440;23;20012;-67
2023/06/21 04:45:54;;;;;;;;;;;;;;;19.94;100.00;101326.91;12863915;23;19943;-67
2023/06/21 04:50:56;;;;;;;;;;;;;;;19.87;100.00;101326.63;12864537;23;19927;-67
2023/06/21 04:55:58;;;;;;;;;;;;;;;19.90;100.00;101336.97;12863779;23;19995;-67
2023/06/21 05:01:00;;;;;;;;;;;;;;;19.85;100.00;101340.06;12863769;23;19986;-67
2023/06/21 05:06:03;;;;;;;;;;;;;;;19.90;100.00;101368.84;12863417;23;19999;-67
2023/06/21 05:11:06;;;;;;;;;;;;;;;19.56;100.00;101366.47;12864101;23;19923;-67
2023/06/21 05:16:09;;;;;;;;;;;;;;;20.02;100.00;101364.28;12864386;23;19920;-66
2023/06/21 05:21:11;;;;;;;;;;;;;;;19.72;100.00;101363.34;12863232;23;19951;-66
2023/06/21 05:26:13;;;;;;;;;;;;;;;20.01;100.00;101375.91;12863571;23;20241;-66
2023/06/21 05:31:15;;;;;;;;;;;;;;;19.91;100.00;101375.03;12863727;23;19991;-66
2023/06/21 05:36:18;;;;;;;;;;;;;;;20.04;100.00;101372.97;12862706;23;19920;-66
2023/06/21 05:41:20;;;;;;;;;;;;;;;20.21;100.00;101374.97;12864033;23;19920;-66
2023/06/21 05:46:22;;;;;;;;;;;;;;;20.18;100.00;101385.03;12837258;23;19944;-66
2023/06/21 05:51:25;;;;;;;;;;;;;;;20.19;100.00;101386.69;12862924;23;19924;-66
2023/06/21 05:56:28;;;;;;;;;;;;;;;20.09;100.00;101394.66;12862768;23;19919;-66
2023/06/21 06:01:30;;;;;;;;;;;;;;;20.18;100.00;101395.66;12861845;23;19920;-66
2023/06/21 06:06:36;;;;;;;;;;;;;;;20.20;100.00;101407.00;12862740;23;19920;-66
2023/06/21 06:11:39;;;;;;;;;;;;;;;19.91;100.00;101418.38;12861827;23;19920;-66
2023/06/21 06:16:41;;;;;;;;;;;;;;;20.52;100.00;101421.91;12863368;23;19919;-66
2023/06/21 06:21:43;;;;;;;;;;;;;;;20.67;100.00;101428.53;12861885;23;19926;-66
2023/06/21 06:26:46;;;;;;;;;;;;;;;20.00;100.00;101440.66;12837064;23;19924;-66
2023/06/21 06:31:48;;;;;;;;;;;;;;;20.50;100.00;101432.66;12862458;23;19920;-66
2023/06/21 06:36:53;;;;;;;;;;;;;;;20.28;100.00;101431.09;12861849;23;20322;-66
2023/06/21 06:42:12;;;;;;;;;;;;;;;20.18;100.00;101432.88;12862435;23;20351;-66
2023/06/21 06:47:14;;;;;;;;;;;;;;;20.41;100.00;101449.47;12862336;23;19942;-66
2023/06/21 06:52:17;;;;;;;;;;;;;;;20.49;100.00;101460.22;12862185;23;19983;-66
2023/06/21 06:57:19;;;;;;;;;;;;;;;20.71;100.00;101467.19;12862347;23;19995;-66
2023/06/21 07:02:35;;;;;;;;;;;;;;;20.87;100.00;101463.13;12865918;23;19931;-66
2023/06/21 07:07:37;;;;;;;;;;;;;;;21.15;100.00;101474.78;12866895;23;19987;-66
2023/06/21 07:12:40;;;;;;;;;;;;;;;21.25;100.00;101475.59;12866440;23;19926;-66
2023/06/21 07:17:42;;;;;;;;;;;;;;;21.04;100.00;101491.72;12865993;23;19920;-67
2023/06/21 07:22:44;;;;;;;;;;;;;;;21.90;100.00;101488.25;12866211;23;19920;-67
2023/06/21 07:27:47;;;;;;;;;;;;;;;22.12;98.54;101488.88;12866626;23;19983;-67
2023/06/21 07:32:49;;;;;;;;;;;;;;;22.40;100.00;101487.91;12866187;23;19926;-67
2023/06/21 07:37:51;;;;;;;;;;;;;;;22.23;98.19;101480.69;12865225;23;20329;-68
2023/06/21 07:42:54;;;;;;;;;;;;;;;22.38;98.72;101487.25;12866316;23;19920;-68
2023/06/21 07:47:56;;;;;;;;;;;;;;;23.00;89.95;101500.72;12865059;23;20026;-68
2023/06/21 07:52:58;;;;;;;;;;;;;;;22.52;98.86;101495.72;12865898;23;19943;-67
2023/06/21 07:58:00;;;;;;;;;;;;;;;22.89;90.69;101489.44;12865349;23;19920;-68
2023/06/21 08:03:03;;;;;;;;;;;;;;;23.16;93.97;101499.22;12864794;23;19920;-67
2023/06/21 08:08:05;;;;;;;;;;;;;;;23.89;84.55;101492.78;12864714;23;19927;-68
2023/06/21 08:13:07;;;;;;;;;;;;;;;23.81;88.41;101498.03;12865049;23;19999;-68
2023/06/21 08:18:09;;;;;;;;;;;;;;;24.46;81.82;101500.19;12864487;23;20003;-68
2023/06/21 08:23:12;;;;;;;;;;;;;;;24.40;78.20;101504.38;12864813;23;20359;-68
2023/06/21 08:28:14;;;;;;;;;;;;;;;24.96;76.21;101501.19;12864289;23;20341;-69
2023/06/21 08:33:16;;;;;;;;;;;;;;;24.71;77.86;101505.66;12864932;23;19923;-69
2023/06/21 08:38:18;;;;;;;;;;;;;;;25.62;77.10;101511.91;12864433;23;19923;-68
2023/06/21 08:43:29;;;;;;;;;;;;;;;26.42;72.60;101519.91;12864192;23;19924;-68
2023/06/21 08:48:32;;;;;;;;;;;;;;;26.42;72.15;101522.59;12861833;23;20003;-68
2023/06/21 08:53:50;;;;;;;;;;;;;;;26.48;66.81;101524.59;12837944;23;19959;-69
2023/06/21 08:59:08;;;;;;;;;;;;;;;26.78;63.44;101527.47;12863769;23;19999;-69
2023/06/21 09:04:10;;;;;;;;;;;;;;;26.81;65.30;101518.22;12838470;23;19948;-68
2023/06/21 09:14:31;;;;;;;;;;;;;;;27.58;61.62;101528.88;12864785;23;19999;-69
2023/06/21 09:19:34;;;;;;;;;;;;;;;27.02;61.19;101533.72;12863865;23;19920;-69
2023/06/21 09:24:37;;;;;;;;;;;;;;;27.28;58.15;101536.00;12863517;23;19919;-69
2023/06/21 09:29:39;;;;;;;;;;;;;;;27.09;58.25;101539.19;12837886;23;19920;-68
2023/06/21 09:34:44;;;;;;;;;;;;;;;28.38;59.10;101540.00;12837503;23;19958;-69
2023/06/21 09:39:53;;;;;;;;;;;;;;;27.70;61.15;101556.16;12863186;23;19928;-68
2023/06/21 09:44:55;;;;;;;;;;;;;;;28.15;57.56;101551.69;12863261;23;20078;-69
2023/06/21 09:49:58;;;;;;;;;;;;;;;27.84;57.05;101553.69;12837514;23;19947;-68
2023/06/21 09:55:01;;;;;;;;;;;;;;;27.42;55.02;101555.94;12863774;23;19987;-69
2023/06/21 10:00:05;;;;;;;;;;;;;;;28.63;51.49;101553.13;12837362;23;19955;-70
2023/06/21 10:05:17;;;;;;;;;;;;;;;29.54;53.69;101553.44;12837029;23;19920;-70
2023/06/21 10:10:20;;;;;;;;;;;;;;;29.52;50.63;101558.22;12836967;23;19920;-69
2023/06/21 10:15:23;;;;;;;;;;;;;;;29.97;50.74;101568.72;12863434;23;19954;-69
2023/06/21 10:20:25;;;;;;;;;;;;;;;28.88;50.77;101559.00;12837184;23;19970;-69
2023/06/21 10:25:28;;;;;;;;;;;;;;;27.96;53.10;101558.47;12863384;23;19927;-69
2023/06/21 10:30:30;;;;;;;;;;;;;;;30.06;52.43;101564.00;12863110;23;19926;-69
2023/06/21 10:35:33;;;;;;;;;;;;;;;30.34;49.07;101569.34;12836883;23;19951;-70
2023/06/21 10:40:36;;;;;;;;;;;;;;;30.20;47.43;101573.84;12836127;23;20312;-70
2023/06/21 10:45:39;;;;;;;;;;;;;;;30.57;48.86;101579.84;12862409;23;19979;-69
2023/06/21 10:50:41;;;;;;;;;;;;;;;29.93;48.62;101581.78;12836942;23;20238;-69
2023/06/21 10:55:46;;;;;;;;;;;;;;;30.88;47.03;101584.75;12835927;23;20245;-69
2023/06/21 11:00:49;;;;;;;;;;;;;;;30.62;48.11;101587.38;12862278;23;20019;-69
2023/06/21 11:06:14;;;;;;;;;;;;;;;31.11;47.60;101580.88;12835803;23;19920;-69
2023/06/21 11:11:29;;;;;;;;;;;;;;;31.27;46.55;101580.47;12846549;23;19990;-70
2023/06/21 11:16:36;;;;;;;;;;;;;;;29.24;51.29;101602.16;12862105;23;19926;-69
2023/06/21 11:21:46;;;;;;;;;;;;;;;29.78;48.61;101598.06;12862635;23;19943;-69
2023/06/21 11:26:57;;;;;;;;;;;;;;;31.00;44.87;101592.28;12835683;23;20292;-70
2023/06/21 11:32:29;;;;;;;;;;;;;;;29.71;47.46;101602.56;12836043;23;20333;-70
2023/06/21 11:37:40;;;;;;;;;;;;;;;28.32;49.96;101608.88;12837574;23;20237;-70
2023/06/21 11:42:47;;;;;;;;;;;;;;;28.31;52.14;101614.44;12862384;23;19971;-70
2023/06/21 11:47:59;;;;;;;;;;;;;;;27.47;53.13;101614.53;12840144;23;19947;-70
2023/06/21 11:53:12;;;;;;;;;;;;;;;30.10;49.52;101614.69;12840088;23;19923;-71
2023/06/21 11:58:15;;;;;;;;;;;;;;;30.28;47.87;101607.94;12866053;23;19920;-71
2023/06/21 12:03:18;;;;;;;;;;;;;;;32.44;45.99;101604.31;12837816;23;19946;-72
2023/06/21 12:08:21;;;;;;;;;;;;;;;30.96;45.18;101597.25;12865913;23;19926;-72
2023/06/21 12:13:24;;;;;;;;;;;;;;;30.74;48.63;101613.59;12838489;23;19958;-72
2023/06/21 12:18:26;;;;;;;;;;;;;;;31.88;47.44;101610.28;12813856;23;20002;-72
2023/06/21 12:23:29;;;;;;;;;;;;;;;31.05;44.21;101612.28;12864796;23;20023;-71
2023/06/21 12:28:31;;;;;;;;;;;;;;;30.88;43.90;101614.50;12838909;23;19987;-72
2023/06/21 12:33:34;;;;;;;;;;;;;;;31.73;42.91;101629.44;12865368;23;20310;-72
2023/06/21 12:38:37;;;;;;;;;;;;;;;31.84;42.01;101631.47;12865239;23;19962;-72
2023/06/21 12:43:42;;;;;;;;;;;;;;;31.24;45.16;101636.84;12864498;23;20007;-72
2023/06/21 12:48:46;;;;;;;;;;;;;;;31.30;44.52;101631.47;12838952;23;19946;-73
2023/06/21 12:53:52;;;;;;;;;;;;;;;28.46;48.97;101647.63;12864952;23;19920;-72
2023/06/21 12:58:54;;;;;;;;;;;;;;;30.50;48.61;101658.19;12864207;23;20392;-72
2023/06/21 13:03:57;;;;;;;;;;;;;;;31.71;42.93;101654.00;12864098;23;19930;-71
2023/06/21 13:08:59;;;;;;;;;;;;;;;32.17;41.92;101663.97;12837684;23;19920;-73
2023/06/21 13:14:05;;;;;;;;;;;;;;;33.14;40.20;101666.78;12863651;23;19920;-69
2023/06/21 13:19:07;;;;;;;;;;;;;;;29.53;46.26;101664.25;12838530;23;19962;-69
2023/06/21 13:24:09;;;;;;;;;;;;;;;31.26;43.47;101661.81;12864118;23;19920;-69
2023/06/21 13:29:12;;;;;;;;;;;;;;;29.42;45.09;101670.97;12864336;23;19954;-69
2023/06/21 13:34:14;;;;;;;;;;;;;;;30.90;42.52;101662.91;12864254;23;19990;-69
2023/06/21 13:39:16;;;;;;;;;;;;;;;31.19;43.07;101661.81;12864107;23;19920;-69
2023/06/21 13:44:18;;;;;;;;;;;;;;;29.36;47.06;101669.06;12864527;23;19954;-69
2023/06/21 13:49:21;;;;;;;;;;;;;;;31.58;42.28;101654.00;12864245;23;19920;-69
2023/06/21 13:54:24;;;;;;;;;;;;;;;30.73;43.30;101657.03;12863121;23;20288;-69
2023/06/21 13:59:26;;;;;;;;;;;;;;;30.72;44.94;101663.50;12862935;23;19920;-69
2023/06/21 14:04:28;;;;;;;;;;;;;;;29.59;43.44;101661.63;12862907;23;19927;-69
2023/06/21 14:09:31;;;;;;;;;;;;;;;31.42;42.13;101657.88;12863178;23;19966;-69
2023/06/21 14:14:33;;;;;;;;;;;;;;;32.25;41.93;101651.28;12862690;23;19927;-70
2023/06/21 14:19:37;;;;;;;;;;;;;;;31.56;42.29;101647.97;12863384;23;20002;-69
2023/06/21 14:24:40;;;;;;;;;;;;;;;28.16;44.23;101646.75;12862660;23;20297;-68
2023/06/21 14:29:45;;;;;;;;;;;;;;;29.96;45.23;101648.88;12862691;23;19950;-69
2023/06/21 14:34:47;;;;;;;;;;;;;;;29.93;42.69;101653.84;12862132;23;20007;-71
2023/06/21 14:39:49;;;;;;;;;;;;;;;28.59;45.61;101652.34;12862453;23;19919;-71
2023/06/21 14:44:52;;;;;;;;;;;;;;;30.04;43.75;101657.84;12863252;23;19920;-71
2023/06/21 14:49:55;;;;;;;;;;;;;;;30.18;41.89;101651.53;12862476;23;19995;-71
2023/06/21 14:54:57;;;;;;;;;;;;;;;29.33;44.45;101653.25;12836877;23;19954;-70
2023/06/21 15:00:00;;;;;;;;;;;;;;;31.33;40.87;101654.53;12835466;23;20313;-71
2023/06/21 15:05:02;;;;;;;;;;;;;;;30.88;41.25;101646.94;12862550;23;19943;-71
2023/06/21 15:10:04;;;;;;;;;;;;;;;29.99;44.23;101664.69;12858980;23;20003;-70
2023/06/21 15:15:07;;;;;;;;;;;;;;;28.97;45.36;101668.41;12863358;23;19976;-71
2023/06/21 15:20:09;;;;;;;;;;;;;;;28.90;44.59;101665.63;12864596;23;19999;-71
2023/06/21 15:25:12;;;;;;;;;;;;;;;31.00;40.46;101663.44;12866917;23;19992;-71
2023/06/21 15:30:14;;;;;;;;;;;;;;;30.38;41.72;101666.00;12866725;23;19926;-71
2023/06/21 15:35:16;;;;;;;;;;;;;;;29.78;44.47;101659.31;12866204;23;19943;-71
2023/06/21 15:40:18;;;;;;;;;;;;;;;28.39;44.78;101665.50;12865953;23;19924;-71
2023/06/21 15:45:21;;;;;;;;;;;;;;;29.94;43.02;101666.28;12864928;23;19920;-71
2023/06/21 15:50:23;;;;;;;;;;;;;;;30.93;41.96;101666.06;12865349;23;19947;-71
2023/06/21 15:55:25;;;;;;;;;;;;;;;30.08;42.08;101670.78;12865716;23;19995;-71
2023/06/21 16:00:28;;;;;;;;;;;;;;;29.55;42.85;101676.50;12865529;23;19927;-70
2023/06/21 16:05:30;;;;;;;;;;;;;;;29.52;44.97;101670.66;12866014;23;19920;-70
2023/06/21 16:10:32;;;;;;;;;;;;;;;29.68;42.98;101667.72;12864166;23;19920;-70
2023/06/21 16:15:35;;;;;;;;;;;;;;;29.99;43.92;101682.72;12864710;23;20298;-70
2023/06/21 16:20:37;;;;;;;;;;;;;;;28.53;44.98;101680.84;12865321;23;20002;-70
2023/06/21 16:25:39;;;;;;;;;;;;;;;29.25;43.28;101681.16;12863172;23;19995;-70
2023/06/21 16:30:41;;;;;;;;;;;;;;;29.38;44.29;101672.41;12863841;23;19991;-70
2023/06/21 16:35:44;;;;;;;;;;;;;;;29.13;45.34;101663.78;12863638;23;19924;-71
2023/06/21 16:40:47;;;;;;;;;;;;;;;29.02;44.60;101675.91;12838932;23;19928;-71
2023/06/21 16:45:49;;;;;;;;;;;;;;;28.13;45.14;101676.72;12864801;23;19920;-71
2023/06/21 16:50:52;;;;;;;;;;;;;;;28.81;44.80;101677.50;12838305;23;19924;-71
2023/06/21 16:55:54;;;;;;;;;;;;;;;29.27;45.98;101665.66;12863139;23;20244;-71
2023/06/21 17:00:57;;;;;;;;;;;;;;;28.41;45.90;101679.66;12838380;23;19999;-72
2023/06/21 17:05:59;;;;;;;;;;;;;;;28.24;46.98;101678.97;12838712;23;19947;-72
2023/06/21 17:11:01;;;;;;;;;;;;;;;27.49;47.93;101690.47;12864268;23;19947;-71
2023/06/21 17:16:03;;;;;;;;;;;;;;;27.95;48.16;101698.59;12864627;23;19927;-72
2023/06/21 17:21:06;;;;;;;;;;;;;;;27.38;48.06;101705.19;12863658;23;19919;-72
2023/06/21 17:26:08;;;;;;;;;;;;;;;27.20;48.77;101687.44;12863581;23;20369;-70
2023/06/21 17:31:12;;;;;;;;;;;;;;;26.94;48.62;101708.41;12862543;23;19927;-71
2023/06/21 17:36:14;;;;;;;;;;;;;;;26.82;47.82;101698.03;12860767;23;20338;-71
2023/06/21 17:41:16;;;;;;;;;;;;;;;26.84;48.26;101701.38;12862790;23;20012;-71
2023/06/21 17:46:18;;;;;;;;;;;;;;;26.08;49.42;101702.69;12864003;23;19987;-71
2023/06/21 17:51:21;;;;;;;;;;;;;;;25.75;51.00;101703.47;12863170;23;19948;-71
2023/06/21 17:56:23;;;;;;;;;;;;;;;26.59;50.36;101699.75;12863673;23;19920;-71
2023/06/21 18:01:25;;;;;;;;;;;;;;;26.19;51.60;101715.75;12835948;23;19920;-71
2023/06/21 18:06:28;;;;;;;;;;;;;;;26.37;51.50;101704.00;12862806;23;19923;-71
2023/06/21 18:11:30;;;;;;;;;;;;;;;25.39;52.18;101714.47;12863039;23;19958;-71
2023/06/21 18:16:33;;;;;;;;;;;;;;;25.83;51.81;101718.75;12836952;23;19954;-71
2023/06/21 18:21:35;;;;;;;;;;;;;;;25.51;53.46;101714.19;12863489;23;19951;-73
2023/06/21 18:26:37;;;;;;;;;;;;;;;25.27;52.94;101715.78;12862653;23;20297;-73
2023/06/21 18:31:39;;;;;;;;;;;;;;;24.86;52.51;101718.25;12862596;23;19995;-73
2023/06/21 18:36:41;;;;;;;;;;;;;;;25.05;53.90;101703.78;12863201;23;19966;-73
2023/06/21 18:41:44;;;;;;;;;;;;;;;25.08;52.77;101692.72;12862416;23;20241;-73
2023/06/21 18:46:46;;;;;;;;;;;;;;;24.95;52.93;101695.88;12862417;23;20303;-72
2023/06/21 18:51:48;;;;;;;;;;;;;;;24.71;56.46;101695.75;12863865;23;19958;-73
2023/06/21 18:56:50;;;;;;;;;;;;;;;24.67;57.03;101693.38;12866668;23;19920;-73
2023/06/21 19:01:53;;;;;;;;;;;;;;;24.51;57.50;101700.47;12866903;23;19926;-73
2023/06/21 19:06:55;;;;;;;;;;;;;;;24.23;57.89;101696.09;12865376;23;20325;-73
2023/06/21 19:11:59;;;;;;;;;;;;;;;24.17;58.78;101691.38;12865591;23;20284;-73
2023/06/21 19:17:02;;;;;;;;;;;;;;;23.78;59.94;101683.66;12866290;23;19966;-73
2023/06/21 19:22:04;;;;;;;;;;;;;;;23.46;61.38;101681.53;12865884;23;19920;-73
2023/06/21 19:27:09;;;;;;;;;;;;;;;23.78;60.45;101674.81;12866281;23;19920;-73
2023/06/21 19:32:11;;;;;;;;;;;;;;;23.28;61.78;101676.97;12866518;23;20003;-73
2023/06/21 19:37:17;;;;;;;;;;;;;;;23.04;62.49;101679.34;12865562;23;20348;-73
2023/06/21 19:42:20;;;;;;;;;;;;;;;22.72;63.18;101688.63;12839289;23;20500;-72
2023/06/21 19:47:24;;;;;;;;;;;;;;;22.51;63.98;101686.16;12865603;23;19995;-73
2023/06/21 19:52:27;;;;;;;;;;;;;;;22.11;66.52;101712.03;12865308;23;19919;-74
2023/06/21 19:57:29;;;;;;;;;;;;;;;21.84;69.05;101710.91;12866090;23;19927;-73
2023/06/21 20:02:31;;;;;;;;;;;;;;;21.58;70.98;101720.44;12862884;23;19920;-73
2023/06/21 20:07:35;;;;;;;;;;;;;;;21.40;72.00;101721.06;12864411;23;20396;-73
2023/06/21 20:12:37;;;;;;;;;;;;;;;21.42;71.90;101739.59;12838633;23;19986;-74
2023/06/21 20:17:40;;;;;;;;;;;;;;;21.05;74.32;101742.81;12813092;23;20404;-73
2023/06/21 20:22:42;;;;;;;;;;;;;;;21.17;73.31;101741.75;12862895;23;20510;-73
2023/06/21 20:27:44;;;;;;;;;;;;;;;21.09;74.50;101739.72;12863760;23;19939;-73
2023/06/21 20:32:47;;;;;;;;;;;;;;;20.85;76.04;101753.38;12863334;23;19987;-73
2023/06/21 20:37:49;;;;;;;;;;;;;;;20.76;76.49;101764.78;12864134;23;20293;-73
2023/06/21 20:42:54;;;;;;;;;;;;;;;20.84;75.96;101758.81;12864359;23;19927;-73
2023/06/21 20:47:57;;;;;;;;;;;;;;;20.78;76.53;101770.84;12863823;23;19920;-73
2023/06/21 20:53:00;;;;;;;;;;;;;;;20.63;75.74;101766.81;12863369;23;19924;-73
2023/06/21 20:58:03;;;;;;;;;;;;;;;20.77;75.61;101782.44;12863684;23;19960;-73
2023/06/21 21:03:05;;;;;;;;;;;;;;;20.71;76.88;101785.63;12864521;23;19920;-73
2023/06/21 21:08:10;;;;;;;;;;;;;;;20.47;79.69;101788.50;12863356;23;19927;-72
2023/06/21 21:13:12;;;;;;;;;;;;;;;20.59;79.54;101800.78;12863531;23;19927;-73
2023/06/21 21:18:15;;;;;;;;;;;;;;;20.28;80.52;101797.19;12861925;23;19956;-72
2023/06/21 21:23:17;;;;;;;;;;;;;;;19.86;79.66;101813.88;12864367;23;19920;-72
2023/06/21 21:28:19;;;;;;;;;;;;;;;20.00;79.10;101816.22;12913976;22;19943;-75
2023/06/21 21:33:21;;;;;;;;;;;;;;;20.20;78.23;101814.59;12925334;23;19919;-75
2023/06/21 21:38:23;;;;;;;;;;;;;;;20.21;79.67;101821.63;12924744;23;20343;-75
2023/06/21 21:43:26;;;;;;;;;;;;;;;20.09;81.45;101822.63;12925317;23;20404;-75
2023/06/21 21:48:28;;;;;;;;;;;;;;;20.14;81.92;101814.25;12895860;23;20356;-75
2023/06/21 21:53:30;;;;;;;;;;;;;;;19.87;82.01;101815.56;12925912;23;19923;-75
2023/06/21 21:58:32;;;;;;;;;;;;;;;19.62;83.75;101819.31;12925763;23;20002;-75
2023/06/21 22:03:35;;;;;;;;;;;;;;;19.58;83.78;101812.53;12926469;23;19991;-75
2023/06/21 22:08:37;;;;;;;;;;;;;;;19.59;85.27;101817.75;12926438;23;19919;-75
2023/06/21 22:13:40;;;;;;;;;;;;;;;19.81;83.31;101810.75;12925454;23;19991;-75
2023/06/21 22:18:43;;;;;;;;;;;;;;;19.75;85.91;101809.41;12924581;23;20456;-75
2023/06/21 22:23:46;;;;;;;;;;;;;;;19.42;86.67;101805.81;12926203;23;19919;-74
2023/06/21 22:28:48;;;;;;;;;;;;;;;19.59;87.81;101812.41;12925019;23;20252;-74
2023/06/21 22:33:50;;;;;;;;;;;;;;;19.73;87.54;101802.50;12925277;23;19990;-75
2023/06/21 22:38:52;;;;;;;;;;;;;;;19.60;89.75;101818.56;12924282;23;19920;-75
2023/06/21 22:43:55;;;;;;;;;;;;;;;19.23;90.88;101814.38;12899683;23;19939;-75
2023/06/21 22:49:02;;;;;;;;;;;;;;;19.22;91.39;101804.72;12925176;23;19985;-74
2023/06/21 22:54:04;;;;;;;;;;;;;;;19.34;93.41;101824.16;12899800;23;19919;-74
2023/06/21 22:59:07;;;;;;;;;;;;;;;19.39;92.97;101818.47;12873051;23;19955;-75
2023/06/21 23:04:09;;;;;;;;;;;;;;;19.37;92.52;101831.88;12925764;23;19947;-76
2023/06/21 23:09:12;;;;;;;;;;;;;;;19.39;93.53;101821.97;12899171;23;19926;-76
2023/06/21 23:14:17;;;;;;;;;;;;;;;19.34;94.61;101820.66;12924451;23;19994;-76
2023/06/21 23:19:20;;;;;;;;;;;;;;;19.29;97.24;101816.53;12924366;23;19955;-75
2023/06/21 23:24:25;;;;;;;;;;;;;;;19.30;97.07;101828.84;12924601;23;19926;-74
2023/06/21 23:29:27;;;;;;;;;;;;;;;19.28;99.44;101825.47;12924852;23;19998;-75
2023/06/21 23:34:34;;;;;;;;;;;;;;;19.26;100.00;101839.81;12924337;23;19973;-75
2023/06/21 23:39:43;;;;;;;;;;;;;;;19.23;100.00;101832.97;12899946;23;19920;-75
2023/06/21 23:44:48;;;;;;;;;;;;;;;19.23;100.00;101826.78;12928601;23;20311;-75
2023/06/21 23:49:50;;;;;;;;;;;;;;;19.09;100.00;101828.69;12929223;23;19947;-75
2023/06/21 23:54:52;;;;;;;;;;;;;;;19.09;100.00;101831.34;12928664;23;19991;-75
2023/06/21 23:59:55;;;;;;;;;;;;;;;19.16;100.00;101822.94;12901894;23;19998;-75
